sensor_id;sensor_type;location;lat;lon;timestamp;P1;durP1;ratioP1;P2;durP2;ratioP2
36355;SDS011;22384;54.302;18.596;2022-12-13T00:01:53;1.90;;;1.65;;
36355;SDS011;22384;54.302;18.596;2022-12-13T00:04:20;2.30;;;1.70;;
36355;SDS011;22384;54.302;18.596;2022-12-13T00:06:47;2.25;;;1.40;;
36355;SDS011;22384;54.302;18.596;2022-12-13T00:09:15;1.80;;;1.15;;
36355;SDS011;22384;54.302;18.596;2022-12-13T00:11:41;1.67;;;1.20;;
36355;SDS011;22384;54.302;18.596;2022-12-13T00:14:09;1.98;;;1.23;;
36355;SDS011;22384;54.302;18.596;2022-12-13T00:16:39;2.22;;;1.50;;
36355;SDS011;22384;54.302;18.596;2022-12-13T00:19:05;3.47;;;1.60;;
36355;SDS011;22384;54.302;18.596;2022-12-13T00:21:32;1.98;;;1.35;;
36355;SDS011;22384;54.302;18.596;2022-12-13T00:23:59;3.33;;;1.55;;
36355;SDS011;22384;54.302;18.596;2022-12-13T00:26:28;4.20;;;1.50;;
36355;SDS011;22384;54.302;18.596;2022-12-13T00:28:54;2.25;;;1.40;;
36355;SDS011;22384;54.302;18.596;2022-12-13T00:31:22;3.08;;;1.58;;
36355;SDS011;22384;54.302;18.596;2022-12-13T00:33:51;3.17;;;1.50;;
36355;SDS011;22384;54.302;18.596;2022-12-13T00:36:17;2.63;;;1.45;;
36355;SDS011;22384;54.302;18.596;2022-12-13T00:38:43;5.13;;;1.45;;
36355;SDS011;22384;54.302;18.596;2022-12-13T00:41:17;2.97;;;1.55;;
36355;SDS011;22384;54.302;18.596;2022-12-13T00:43:43;1.83;;;1.45;;
36355;SDS011;22384;54.302;18.596;2022-12-13T00:46:12;3.40;;;1.90;;
36355;SDS011;22384;54.302;18.596;2022-12-13T00:48:41;4.15;;;1.90;;
36355;SDS011;22384;54.302;18.596;2022-12-13T00:51:10;3.30;;;1.30;;
36355;SDS011;22384;54.302;18.596;2022-12-13T00:53:37;2.95;;;1.23;;
36355;SDS011;22384;54.302;18.596;2022-12-13T00:56:03;2.63;;;1.48;;
36355;SDS011;22384;54.302;18.596;2022-12-13T00:58:42;2.47;;;1.42;;
36355;SDS011;22384;54.302;18.596;2022-12-13T01:01:09;4.57;;;1.88;;
36355;SDS011;22384;54.302;18.596;2022-12-13T01:03:36;2.17;;;1.33;;
36355;SDS011;22384;54.302;18.596;2022-12-13T01:06:14;2.88;;;1.10;;
36355;SDS011;22384;54.302;18.596;2022-12-13T01:08:46;4.10;;;1.65;;
36355;SDS011;22384;54.302;18.596;2022-12-13T01:11:23;1.77;;;1.42;;
36355;SDS011;22384;54.302;18.596;2022-12-13T01:13:51;5.25;;;2.03;;
36355;SDS011;22384;54.302;18.596;2022-12-13T01:18:49;3.58;;;1.88;;
36355;SDS011;22384;54.302;18.596;2022-12-13T01:21:21;1.52;;;1.13;;
36355;SDS011;22384;54.302;18.596;2022-12-13T01:23:48;3.83;;;1.73;;
36355;SDS011;22384;54.302;18.596;2022-12-13T01:26:15;3.90;;;1.58;;
36355;SDS011;22384;54.302;18.596;2022-12-13T01:28:42;1.88;;;1.25;;
36355;SDS011;22384;54.302;18.596;2022-12-13T01:31:11;3.88;;;1.30;;
36355;SDS011;22384;54.302;18.596;2022-12-13T01:33:38;2.83;;;1.70;;
36355;SDS011;22384;54.302;18.596;2022-12-13T01:36:06;3.67;;;1.23;;
36355;SDS011;22384;54.302;18.596;2022-12-13T01:38:34;3.92;;;1.60;;
36355;SDS011;22384;54.302;18.596;2022-12-13T01:41:06;2.03;;;1.50;;
36355;SDS011;22384;54.302;18.596;2022-12-13T01:46:09;4.95;;;1.50;;
36355;SDS011;22384;54.302;18.596;2022-12-13T01:48:36;1.90;;;1.35;;
36355;SDS011;22384;54.302;18.596;2022-12-13T01:51:05;2.30;;;1.30;;
36355;SDS011;22384;54.302;18.596;2022-12-13T01:53:34;2.65;;;1.30;;
36355;SDS011;22384;54.302;18.596;2022-12-13T01:56:02;2.47;;;1.15;;
36355;SDS011;22384;54.302;18.596;2022-12-13T01:58:30;4.20;;;1.58;;
36355;SDS011;22384;54.302;18.596;2022-12-13T02:01:02;2.88;;;1.65;;
36355;SDS011;22384;54.302;18.596;2022-12-13T02:03:34;3.30;;;1.50;;
36355;SDS011;22384;54.302;18.596;2022-12-13T02:06:03;1.80;;;1.10;;
36355;SDS011;22384;54.302;18.596;2022-12-13T02:08:30;2.17;;;1.48;;
36355;SDS011;22384;54.302;18.596;2022-12-13T02:10:57;2.15;;;1.60;;
36355;SDS011;22384;54.302;18.596;2022-12-13T02:13:24;4.45;;;1.52;;
36355;SDS011;22384;54.302;18.596;2022-12-13T02:21:29;2.83;;;1.80;;
36355;SDS011;22384;54.302;18.596;2022-12-13T02:26:40;2.60;;;1.50;;
36355;SDS011;22384;54.302;18.596;2022-12-13T02:31:49;3.13;;;1.50;;
36355;SDS011;22384;54.302;18.596;2022-12-13T02:39:54;1.63;;;1.30;;
36355;SDS011;22384;54.302;18.596;2022-12-13T02:42:24;1.80;;;1.60;;
36355;SDS011;22384;54.302;18.596;2022-12-13T02:45:00;1.83;;;1.63;;
36355;SDS011;22384;54.302;18.596;2022-12-13T02:47:29;5.65;;;1.50;;
36355;SDS011;22384;54.302;18.596;2022-12-13T02:49:58;2.88;;;1.52;;
36355;SDS011;22384;54.302;18.596;2022-12-13T02:52:28;1.67;;;1.33;;
36355;SDS011;22384;54.302;18.596;2022-12-13T02:54:54;3.83;;;1.48;;
36355;SDS011;22384;54.302;18.596;2022-12-13T02:57:29;3.90;;;1.63;;
36355;SDS011;22384;54.302;18.596;2022-12-13T02:59:59;2.97;;;1.67;;
36355;SDS011;22384;54.302;18.596;2022-12-13T03:05:07;2.78;;;1.70;;
36355;SDS011;22384;54.302;18.596;2022-12-13T03:11:06;2.60;;;1.65;;
36355;SDS011;22384;54.302;18.596;2022-12-13T03:13:56;3.72;;;1.35;;
36355;SDS011;22384;54.302;18.596;2022-12-13T03:16:28;2.15;;;1.60;;
36355;SDS011;22384;54.302;18.596;2022-12-13T03:19:05;2.17;;;1.48;;
36355;SDS011;22384;54.302;18.596;2022-12-13T03:21:43;2.67;;;1.48;;
36355;SDS011;22384;54.302;18.596;2022-12-13T03:24:12;2.78;;;1.67;;
36355;SDS011;22384;54.302;18.596;2022-12-13T03:26:38;3.70;;;1.27;;
36355;SDS011;22384;54.302;18.596;2022-12-13T03:29:07;2.45;;;1.75;;
36355;SDS011;22384;54.302;18.596;2022-12-13T03:31:33;1.88;;;1.50;;
36355;SDS011;22384;54.302;18.596;2022-12-13T03:34:00;2.58;;;1.80;;
36355;SDS011;22384;54.302;18.596;2022-12-13T03:36:27;2.97;;;1.75;;
36355;SDS011;22384;54.302;18.596;2022-12-13T03:38:55;3.42;;;1.50;;
36355;SDS011;22384;54.302;18.596;2022-12-13T03:41:24;2.35;;;1.80;;
36355;SDS011;22384;54.302;18.596;2022-12-13T03:44:04;3.40;;;1.77;;
36355;SDS011;22384;54.302;18.596;2022-12-13T03:46:37;2.40;;;1.90;;
36355;SDS011;22384;54.302;18.596;2022-12-13T03:49:05;3.13;;;1.70;;
36355;SDS011;22384;54.302;18.596;2022-12-13T03:51:32;1.83;;;1.63;;
36355;SDS011;22384;54.302;18.596;2022-12-13T03:53:59;3.05;;;1.45;;
36355;SDS011;22384;54.302;18.596;2022-12-13T03:56:27;2.08;;;1.60;;
36355;SDS011;22384;54.302;18.596;2022-12-13T03:58:57;2.75;;;1.50;;
36355;SDS011;22384;54.302;18.596;2022-12-13T04:01:32;2.35;;;1.67;;
36355;SDS011;22384;54.302;18.596;2022-12-13T04:04:15;2.33;;;1.60;;
36355;SDS011;22384;54.302;18.596;2022-12-13T04:06:42;4.38;;;2.00;;
36355;SDS011;22384;54.302;18.596;2022-12-13T04:09:09;2.97;;;1.88;;
36355;SDS011;22384;54.302;18.596;2022-12-13T04:11:35;2.45;;;1.65;;
36355;SDS011;22384;54.302;18.596;2022-12-13T04:14:21;3.28;;;1.73;;
36355;SDS011;22384;54.302;18.596;2022-12-13T04:16:48;3.65;;;2.00;;
36355;SDS011;22384;54.302;18.596;2022-12-13T04:19:15;2.88;;;1.95;;
36355;SDS011;22384;54.302;18.596;2022-12-13T04:21:51;2.67;;;2.00;;
36355;SDS011;22384;54.302;18.596;2022-12-13T04:24:25;4.43;;;2.17;;
36355;SDS011;22384;54.302;18.596;2022-12-13T04:26:55;3.95;;;1.90;;
36355;SDS011;22384;54.302;18.596;2022-12-13T04:29:35;3.22;;;2.17;;
36355;SDS011;22384;54.302;18.596;2022-12-13T04:32:03;3.58;;;2.20;;
36355;SDS011;22384;54.302;18.596;2022-12-13T04:34:31;2.65;;;1.80;;
36355;SDS011;22384;54.302;18.596;2022-12-13T04:36:57;3.08;;;2.08;;
36355;SDS011;22384;54.302;18.596;2022-12-13T04:39:24;3.58;;;1.75;;
36355;SDS011;22384;54.302;18.596;2022-12-13T04:41:52;3.47;;;2.10;;
36355;SDS011;22384;54.302;18.596;2022-12-13T04:44:26;3.30;;;2.00;;
36355;SDS011;22384;54.302;18.596;2022-12-13T04:46:54;5.65;;;2.47;;
36355;SDS011;22384;54.302;18.596;2022-12-13T04:49:26;2.90;;;2.20;;
36355;SDS011;22384;54.302;18.596;2022-12-13T04:51:53;3.00;;;1.88;;
36355;SDS011;22384;54.302;18.596;2022-12-13T04:54:19;4.65;;;2.00;;
36355;SDS011;22384;54.302;18.596;2022-12-13T04:56:45;2.97;;;2.15;;
36355;SDS011;22384;54.302;18.596;2022-12-13T04:59:13;4.80;;;2.25;;
36355;SDS011;22384;54.302;18.596;2022-12-13T05:01:45;4.75;;;2.55;;
36355;SDS011;22384;54.302;18.596;2022-12-13T05:04:11;4.55;;;2.03;;
36355;SDS011;22384;54.302;18.596;2022-12-13T05:06:37;4.18;;;2.17;;
36355;SDS011;22384;54.302;18.596;2022-12-13T05:09:05;4.30;;;2.22;;
36355;SDS011;22384;54.302;18.596;2022-12-13T05:11:33;4.65;;;2.08;;
36355;SDS011;22384;54.302;18.596;2022-12-13T05:14:01;4.65;;;2.13;;
36355;SDS011;22384;54.302;18.596;2022-12-13T05:16:29;4.28;;;2.50;;
36355;SDS011;22384;54.302;18.596;2022-12-13T05:18:56;6.60;;;2.08;;
36355;SDS011;22384;54.302;18.596;2022-12-13T05:21:23;5.50;;;2.30;;
36355;SDS011;22384;54.302;18.596;2022-12-13T05:23:51;3.22;;;2.35;;
36355;SDS011;22384;54.302;18.596;2022-12-13T05:26:18;3.80;;;2.05;;
36355;SDS011;22384;54.302;18.596;2022-12-13T05:28:44;3.97;;;2.33;;
36355;SDS011;22384;54.302;18.596;2022-12-13T05:31:11;3.85;;;2.20;;
36355;SDS011;22384;54.302;18.596;2022-12-13T05:33:38;3.38;;;2.10;;
36355;SDS011;22384;54.302;18.596;2022-12-13T05:36:04;3.28;;;2.13;;
36355;SDS011;22384;54.302;18.596;2022-12-13T05:38:31;3.67;;;2.42;;
36355;SDS011;22384;54.302;18.596;2022-12-13T05:40:57;2.60;;;2.28;;
36355;SDS011;22384;54.302;18.596;2022-12-13T05:43:30;3.50;;;2.35;;
36355;SDS011;22384;54.302;18.596;2022-12-13T05:45:57;6.80;;;2.70;;
36355;SDS011;22384;54.302;18.596;2022-12-13T05:48:24;4.63;;;2.42;;
36355;SDS011;22384;54.302;18.596;2022-12-13T05:50:51;7.30;;;2.53;;
36355;SDS011;22384;54.302;18.596;2022-12-13T05:53:21;6.38;;;2.50;;
36355;SDS011;22384;54.302;18.596;2022-12-13T05:55:48;8.00;;;2.28;;
36355;SDS011;22384;54.302;18.596;2022-12-13T05:58:14;5.40;;;2.70;;
36355;SDS011;22384;54.302;18.596;2022-12-13T06:00:41;5.30;;;2.72;;
36355;SDS011;22384;54.302;18.596;2022-12-13T06:03:07;3.40;;;2.47;;
36355;SDS011;22384;54.302;18.596;2022-12-13T06:05:35;3.15;;;2.22;;
36355;SDS011;22384;54.302;18.596;2022-12-13T06:08:01;4.03;;;2.63;;
36355;SDS011;22384;54.302;18.596;2022-12-13T06:10:28;5.95;;;2.25;;
36355;SDS011;22384;54.302;18.596;2022-12-13T06:15:24;4.32;;;2.47;;
36355;SDS011;22384;54.302;18.596;2022-12-13T06:17:59;5.85;;;2.45;;
36355;SDS011;22384;54.302;18.596;2022-12-13T06:20:31;4.75;;;2.42;;
36355;SDS011;22384;54.302;18.596;2022-12-13T06:22:59;9.82;;;2.80;;
36355;SDS011;22384;54.302;18.596;2022-12-13T06:25:27;12.48;;;2.97;;
36355;SDS011;22384;54.302;18.596;2022-12-13T06:27:54;4.40;;;2.45;;
36355;SDS011;22384;54.302;18.596;2022-12-13T06:30:21;3.97;;;2.88;;
36355;SDS011;22384;54.302;18.596;2022-12-13T06:32:49;5.45;;;2.40;;
36355;SDS011;22384;54.302;18.596;2022-12-13T06:35:15;6.80;;;2.97;;
36355;SDS011;22384;54.302;18.596;2022-12-13T06:37:43;8.27;;;3.13;;
36355;SDS011;22384;54.302;18.596;2022-12-13T06:40:11;8.30;;;3.30;;
36355;SDS011;22384;54.302;18.596;2022-12-13T06:42:38;7.10;;;3.58;;
36355;SDS011;22384;54.302;18.596;2022-12-13T06:45:11;6.13;;;2.67;;
36355;SDS011;22384;54.302;18.596;2022-12-13T06:47:38;6.68;;;3.55;;
36355;SDS011;22384;54.302;18.596;2022-12-13T06:50:04;5.03;;;2.97;;
36355;SDS011;22384;54.302;18.596;2022-12-13T06:52:32;7.88;;;3.97;;
36355;SDS011;22384;54.302;18.596;2022-12-13T06:54:59;9.10;;;3.08;;
36355;SDS011;22384;54.302;18.596;2022-12-13T06:57:25;5.95;;;3.35;;
36355;SDS011;22384;54.302;18.596;2022-12-13T06:59:52;10.90;;;3.90;;
36355;SDS011;22384;54.302;18.596;2022-12-13T07:02:18;5.50;;;2.88;;
36355;SDS011;22384;54.302;18.596;2022-12-13T07:04:44;11.15;;;3.80;;
36355;SDS011;22384;54.302;18.596;2022-12-13T07:07:10;12.82;;;4.03;;
36355;SDS011;22384;54.302;18.596;2022-12-13T07:09:37;10.88;;;3.40;;
36355;SDS011;22384;54.302;18.596;2022-12-13T07:12:03;7.00;;;2.90;;
36355;SDS011;22384;54.302;18.596;2022-12-13T07:14:29;8.68;;;3.33;;
36355;SDS011;22384;54.302;18.596;2022-12-13T07:16:57;10.50;;;4.15;;
36355;SDS011;22384;54.302;18.596;2022-12-13T07:19:24;13.35;;;4.60;;
36355;SDS011;22384;54.302;18.596;2022-12-13T07:21:50;15.82;;;5.10;;
36355;SDS011;22384;54.302;18.596;2022-12-13T07:24:16;10.68;;;3.97;;
36355;SDS011;22384;54.302;18.596;2022-12-13T07:26:43;10.75;;;4.03;;
36355;SDS011;22384;54.302;18.596;2022-12-13T07:29:09;6.57;;;3.50;;
36355;SDS011;22384;54.302;18.596;2022-12-13T07:31:37;9.20;;;4.07;;
36355;SDS011;22384;54.302;18.596;2022-12-13T07:34:04;9.35;;;4.22;;
36355;SDS011;22384;54.302;18.596;2022-12-13T07:36:30;11.93;;;4.18;;
36355;SDS011;22384;54.302;18.596;2022-12-13T07:38:56;11.32;;;3.58;;
36355;SDS011;22384;54.302;18.596;2022-12-13T07:41:23;8.00;;;3.65;;
36355;SDS011;22384;54.302;18.596;2022-12-13T07:43:50;6.07;;;2.90;;
36355;SDS011;22384;54.302;18.596;2022-12-13T07:46:16;6.00;;;3.08;;
36355;SDS011;22384;54.302;18.596;2022-12-13T07:48:43;5.20;;;3.03;;
36355;SDS011;22384;54.302;18.596;2022-12-13T07:51:11;5.18;;;3.15;;
36355;SDS011;22384;54.302;18.596;2022-12-13T07:53:39;10.88;;;3.45;;
36355;SDS011;22384;54.302;18.596;2022-12-13T07:56:07;7.68;;;2.85;;
36355;SDS011;22384;54.302;18.596;2022-12-13T07:58:34;6.55;;;2.55;;
36355;SDS011;22384;54.302;18.596;2022-12-13T08:01:05;4.55;;;2.72;;
36355;SDS011;22384;54.302;18.596;2022-12-13T08:03:35;7.32;;;3.17;;
36355;SDS011;22384;54.302;18.596;2022-12-13T08:06:10;6.28;;;2.65;;
36355;SDS011;22384;54.302;18.596;2022-12-13T08:08:37;7.45;;;3.20;;
36355;SDS011;22384;54.302;18.596;2022-12-13T08:11:07;6.15;;;3.17;;
36355;SDS011;22384;54.302;18.596;2022-12-13T08:13:35;14.65;;;3.42;;
36355;SDS011;22384;54.302;18.596;2022-12-13T08:16:03;7.18;;;2.88;;
36355;SDS011;22384;54.302;18.596;2022-12-13T08:18:30;8.60;;;3.50;;
36355;SDS011;22384;54.302;18.596;2022-12-13T08:21:04;12.95;;;4.18;;
36355;SDS011;22384;54.302;18.596;2022-12-13T08:23:30;10.00;;;3.72;;
36355;SDS011;22384;54.302;18.596;2022-12-13T08:25:59;7.75;;;2.90;;
36355;SDS011;22384;54.302;18.596;2022-12-13T08:28:26;9.40;;;3.42;;
36355;SDS011;22384;54.302;18.596;2022-12-13T08:30:52;7.25;;;3.70;;
36355;SDS011;22384;54.302;18.596;2022-12-13T08:33:19;5.30;;;3.20;;
36355;SDS011;22384;54.302;18.596;2022-12-13T08:35:45;8.30;;;3.08;;
36355;SDS011;22384;54.302;18.596;2022-12-13T08:38:13;7.40;;;3.58;;
36355;SDS011;22384;54.302;18.596;2022-12-13T08:40:40;5.75;;;3.15;;
36355;SDS011;22384;54.302;18.596;2022-12-13T08:43:06;7.70;;;3.45;;
36355;SDS011;22384;54.302;18.596;2022-12-13T08:45:32;12.20;;;4.22;;
36355;SDS011;22384;54.302;18.596;2022-12-13T08:48:00;9.48;;;3.50;;
36355;SDS011;22384;54.302;18.596;2022-12-13T08:50:28;10.55;;;3.95;;
36355;SDS011;22384;54.302;18.596;2022-12-13T08:52:54;10.73;;;3.50;;
36355;SDS011;22384;54.302;18.596;2022-12-13T08:55:20;8.13;;;3.53;;
36355;SDS011;22384;54.302;18.596;2022-12-13T08:57:46;8.57;;;4.10;;
36355;SDS011;22384;54.302;18.596;2022-12-13T09:00:14;9.85;;;4.50;;
36355;SDS011;22384;54.302;18.596;2022-12-13T09:02:40;7.78;;;4.00;;
36355;SDS011;22384;54.302;18.596;2022-12-13T09:05:08;11.52;;;4.80;;
36355;SDS011;22384;54.302;18.596;2022-12-13T09:07:35;9.43;;;4.20;;
36355;SDS011;22384;54.302;18.596;2022-12-13T09:10:03;10.02;;;4.63;;
36355;SDS011;22384;54.302;18.596;2022-12-13T09:12:30;6.30;;;3.47;;
36355;SDS011;22384;54.302;18.596;2022-12-13T09:14:56;6.50;;;3.35;;
36355;SDS011;22384;54.302;18.596;2022-12-13T09:17:23;11.48;;;3.72;;
36355;SDS011;22384;54.302;18.596;2022-12-13T09:19:51;7.20;;;3.13;;
36355;SDS011;22384;54.302;18.596;2022-12-13T09:22:17;8.27;;;3.13;;
36355;SDS011;22384;54.302;18.596;2022-12-13T09:24:45;7.95;;;3.97;;
36355;SDS011;22384;54.302;18.596;2022-12-13T09:27:12;11.52;;;3.47;;
36355;SDS011;22384;54.302;18.596;2022-12-13T09:29:38;14.73;;;4.88;;
36355;SDS011;22384;54.302;18.596;2022-12-13T09:32:06;7.72;;;4.20;;
36355;SDS011;22384;54.302;18.596;2022-12-13T09:34:33;12.50;;;3.97;;
36355;SDS011;22384;54.302;18.596;2022-12-13T09:36:59;8.80;;;3.45;;
36355;SDS011;22384;54.302;18.596;2022-12-13T09:39:25;8.07;;;2.90;;
36355;SDS011;22384;54.302;18.596;2022-12-13T09:41:52;9.93;;;3.90;;
36355;SDS011;22384;54.302;18.596;2022-12-13T09:44:23;8.15;;;3.35;;
36355;SDS011;22384;54.302;18.596;2022-12-13T09:47:02;5.15;;;3.00;;
36355;SDS011;22384;54.302;18.596;2022-12-13T09:49:39;5.18;;;2.60;;
36355;SDS011;22384;54.302;18.596;2022-12-13T09:52:08;8.38;;;2.90;;
36355;SDS011;22384;54.302;18.596;2022-12-13T09:54:37;4.93;;;2.10;;
36355;SDS011;22384;54.302;18.596;2022-12-13T09:57:08;12.27;;;3.17;;
36355;SDS011;22384;54.302;18.596;2022-12-13T09:59:41;9.02;;;3.35;;
36355;SDS011;22384;54.302;18.596;2022-12-13T10:02:26;6.80;;;2.90;;
36355;SDS011;22384;54.302;18.596;2022-12-13T10:04:53;6.82;;;2.30;;
36355;SDS011;22384;54.302;18.596;2022-12-13T10:07:22;9.35;;;3.13;;
36355;SDS011;22384;54.302;18.596;2022-12-13T10:09:52;8.18;;;2.97;;
36355;SDS011;22384;54.302;18.596;2022-12-13T10:12:21;6.28;;;3.00;;
36355;SDS011;22384;54.302;18.596;2022-12-13T10:14:51;8.43;;;3.25;;
36355;SDS011;22384;54.302;18.596;2022-12-13T10:17:27;4.60;;;3.15;;
36355;SDS011;22384;54.302;18.596;2022-12-13T10:19:56;8.80;;;3.95;;
36355;SDS011;22384;54.302;18.596;2022-12-13T10:22:22;11.32;;;3.42;;
36355;SDS011;22384;54.302;18.596;2022-12-13T10:24:52;8.52;;;3.20;;
36355;SDS011;22384;54.302;18.596;2022-12-13T10:27:23;6.35;;;2.92;;
36355;SDS011;22384;54.302;18.596;2022-12-13T10:29:55;5.80;;;3.38;;
36355;SDS011;22384;54.302;18.596;2022-12-13T10:32:22;7.60;;;3.13;;
36355;SDS011;22384;54.302;18.596;2022-12-13T10:34:48;4.85;;;2.97;;
36355;SDS011;22384;54.302;18.596;2022-12-13T10:37:30;9.88;;;3.10;;
36355;SDS011;22384;54.302;18.596;2022-12-13T10:39:57;5.95;;;2.92;;
36355;SDS011;22384;54.302;18.596;2022-12-13T10:42:25;5.80;;;2.97;;
36355;SDS011;22384;54.302;18.596;2022-12-13T10:45:13;5.65;;;3.05;;
36355;SDS011;22384;54.302;18.596;2022-12-13T10:47:41;12.85;;;3.22;;
36355;SDS011;22384;54.302;18.596;2022-12-13T10:50:18;10.23;;;3.80;;
36355;SDS011;22384;54.302;18.596;2022-12-13T10:52:46;11.43;;;4.22;;
36355;SDS011;22384;54.302;18.596;2022-12-13T10:57:55;9.38;;;3.63;;
36355;SDS011;22384;54.302;18.596;2022-12-13T11:00:32;6.93;;;3.55;;
36355;SDS011;22384;54.302;18.596;2022-12-13T11:02:58;6.43;;;3.05;;
36355;SDS011;22384;54.302;18.596;2022-12-13T11:05:27;16.35;;;6.53;;
36355;SDS011;22384;54.302;18.596;2022-12-13T11:07:54;6.93;;;3.75;;
36355;SDS011;22384;54.302;18.596;2022-12-13T11:12:48;12.45;;;3.92;;
36355;SDS011;22384;54.302;18.596;2022-12-13T11:15:17;8.20;;;4.10;;
36355;SDS011;22384;54.302;18.596;2022-12-13T11:17:51;8.00;;;3.65;;
36355;SDS011;22384;54.302;18.596;2022-12-13T11:20:23;9.20;;;3.20;;
36355;SDS011;22384;54.302;18.596;2022-12-13T11:22:57;12.48;;;3.92;;
36355;SDS011;22384;54.302;18.596;2022-12-13T11:25:25;8.65;;;3.65;;
36355;SDS011;22384;54.302;18.596;2022-12-13T11:33:19;6.22;;;3.10;;
36355;SDS011;22384;54.302;18.596;2022-12-13T11:40:43;5.38;;;2.78;;
36355;SDS011;22384;54.302;18.596;2022-12-13T11:43:22;9.75;;;3.80;;
36355;SDS011;22384;54.302;18.596;2022-12-13T11:45:51;10.90;;;4.25;;
36355;SDS011;22384;54.302;18.596;2022-12-13T11:48:33;8.30;;;3.13;;
36355;SDS011;22384;54.302;18.596;2022-12-13T11:51:02;8.93;;;3.10;;
36355;SDS011;22384;54.302;18.596;2022-12-13T11:53:34;4.47;;;2.25;;
36355;SDS011;22384;54.302;18.596;2022-12-13T11:58:40;7.35;;;3.47;;
36355;SDS011;22384;54.302;18.596;2022-12-13T12:01:19;6.72;;;3.38;;
36355;SDS011;22384;54.302;18.596;2022-12-13T12:03:48;6.07;;;3.20;;
36355;SDS011;22384;54.302;18.596;2022-12-13T12:09:12;4.93;;;3.08;;
36355;SDS011;22384;54.302;18.596;2022-12-13T12:14:42;6.18;;;3.08;;
36355;SDS011;22384;54.302;18.596;2022-12-13T12:19:39;5.95;;;2.90;;
36355;SDS011;22384;54.302;18.596;2022-12-13T12:30:25;7.32;;;3.67;;
36355;SDS011;22384;54.302;18.596;2022-12-13T12:43:46;6.30;;;2.90;;
36355;SDS011;22384;54.302;18.596;2022-12-13T12:49:02;7.78;;;3.40;;
36355;SDS011;22384;54.302;18.596;2022-12-13T12:51:46;6.30;;;3.00;;
36355;SDS011;22384;54.302;18.596;2022-12-13T12:57:11;6.93;;;3.70;;
36355;SDS011;22384;54.302;18.596;2022-12-13T13:04:35;6.72;;;4.78;;
36355;SDS011;22384;54.302;18.596;2022-12-13T13:07:13;5.68;;;3.65;;
36355;SDS011;22384;54.302;18.596;2022-12-13T13:09:40;7.35;;;3.65;;
36355;SDS011;22384;54.302;18.596;2022-12-13T13:12:07;6.55;;;3.33;;
36355;SDS011;22384;54.302;18.596;2022-12-13T13:14:35;8.93;;;3.22;;
36355;SDS011;22384;54.302;18.596;2022-12-13T13:22:32;6.05;;;3.58;;
36355;SDS011;22384;54.302;18.596;2022-12-13T13:25:22;9.40;;;2.83;;
36355;SDS011;22384;54.302;18.596;2022-12-13T13:27:47;8.07;;;3.10;;
36355;SDS011;22384;54.302;18.596;2022-12-13T13:32:43;10.15;;;3.42;;
36355;SDS011;22384;54.302;18.596;2022-12-13T13:38:00;7.72;;;3.35;;
36355;SDS011;22384;54.302;18.596;2022-12-13T13:45:25;11.65;;;4.40;;
36355;SDS011;22384;54.302;18.596;2022-12-13T13:48:06;5.72;;;3.13;;
36355;SDS011;22384;54.302;18.596;2022-12-13T14:09:17;19.52;;;7.22;;
36355;SDS011;22384;54.302;18.596;2022-12-13T14:19:52;15.85;;;6.57;;
36355;SDS011;22384;54.302;18.596;2022-12-13T14:22:43;15.73;;;5.45;;
36355;SDS011;22384;54.302;18.596;2022-12-13T14:27:40;11.07;;;5.30;;
36355;SDS011;22384;54.302;18.596;2022-12-13T14:30:18;8.63;;;4.35;;
36355;SDS011;22384;54.302;18.596;2022-12-13T14:32:46;7.97;;;4.10;;
36355;SDS011;22384;54.302;18.596;2022-12-13T14:38:02;8.70;;;3.80;;
36355;SDS011;22384;54.302;18.596;2022-12-13T14:42:55;9.35;;;3.75;;
36355;SDS011;22384;54.302;18.596;2022-12-13T14:47:52;9.10;;;4.18;;
36355;SDS011;22384;54.302;18.596;2022-12-13T14:50:18;7.38;;;3.85;;
36355;SDS011;22384;54.302;18.596;2022-12-13T14:52:46;8.32;;;3.65;;
36355;SDS011;22384;54.302;18.596;2022-12-13T14:57:52;10.77;;;4.05;;
36355;SDS011;22384;54.302;18.596;2022-12-13T15:00:20;7.53;;;3.65;;
36355;SDS011;22384;54.302;18.596;2022-12-13T15:02:50;9.38;;;4.53;;
36355;SDS011;22384;54.302;18.596;2022-12-13T15:05:22;9.30;;;3.58;;
36355;SDS011;22384;54.302;18.596;2022-12-13T15:07:49;9.80;;;3.72;;
36355;SDS011;22384;54.302;18.596;2022-12-13T15:10:19;7.68;;;3.55;;
36355;SDS011;22384;54.302;18.596;2022-12-13T15:12:47;7.55;;;2.58;;
36355;SDS011;22384;54.302;18.596;2022-12-13T15:15:26;7.75;;;3.88;;
36355;SDS011;22384;54.302;18.596;2022-12-13T15:18:15;6.30;;;3.88;;
36355;SDS011;22384;54.302;18.596;2022-12-13T15:20:42;11.23;;;5.15;;
36355;SDS011;22384;54.302;18.596;2022-12-13T15:23:29;7.45;;;3.88;;
36355;SDS011;22384;54.302;18.596;2022-12-13T15:25:57;8.23;;;4.00;;
36355;SDS011;22384;54.302;18.596;2022-12-13T15:28:25;9.82;;;4.45;;
36355;SDS011;22384;54.302;18.596;2022-12-13T15:30:53;7.32;;;3.70;;
36355;SDS011;22384;54.302;18.596;2022-12-13T15:33:23;7.20;;;3.80;;
36355;SDS011;22384;54.302;18.596;2022-12-13T15:35:59;8.52;;;3.90;;
36355;SDS011;22384;54.302;18.596;2022-12-13T15:38:26;10.20;;;3.95;;
36355;SDS011;22384;54.302;18.596;2022-12-13T15:40:53;10.75;;;5.32;;
36355;SDS011;22384;54.302;18.596;2022-12-13T15:43:19;10.85;;;4.60;;
36355;SDS011;22384;54.302;18.596;2022-12-13T15:45:47;9.90;;;4.63;;
36355;SDS011;22384;54.302;18.596;2022-12-13T15:48:26;14.27;;;5.03;;
36355;SDS011;22384;54.302;18.596;2022-12-13T15:51:12;12.95;;;5.68;;
36355;SDS011;22384;54.302;18.596;2022-12-13T15:53:42;18.92;;;6.32;;
36355;SDS011;22384;54.302;18.596;2022-12-13T15:56:32;8.15;;;4.35;;
36355;SDS011;22384;54.302;18.596;2022-12-13T15:58:58;14.20;;;4.93;;
36355;SDS011;22384;54.302;18.596;2022-12-13T16:01:29;9.82;;;4.30;;
36355;SDS011;22384;54.302;18.596;2022-12-13T16:03:55;10.57;;;4.55;;
36355;SDS011;22384;54.302;18.596;2022-12-13T16:06:22;9.77;;;4.30;;
36355;SDS011;22384;54.302;18.596;2022-12-13T16:08:53;8.25;;;4.50;;
36355;SDS011;22384;54.302;18.596;2022-12-13T16:11:25;8.98;;;4.65;;
36355;SDS011;22384;54.302;18.596;2022-12-13T16:13:53;10.07;;;4.18;;
36355;SDS011;22384;54.302;18.596;2022-12-13T16:16:26;9.60;;;4.50;;
36355;SDS011;22384;54.302;18.596;2022-12-13T16:18:57;10.50;;;4.75;;
36355;SDS011;22384;54.302;18.596;2022-12-13T16:21:24;9.18;;;3.95;;
36355;SDS011;22384;54.302;18.596;2022-12-13T16:23:51;7.80;;;4.07;;
36355;SDS011;22384;54.302;18.596;2022-12-13T16:26:23;9.43;;;4.53;;
36355;SDS011;22384;54.302;18.596;2022-12-13T16:28:50;10.48;;;5.22;;
36355;SDS011;22384;54.302;18.596;2022-12-13T16:31:20;12.98;;;4.60;;
36355;SDS011;22384;54.302;18.596;2022-12-13T16:33:47;12.25;;;4.28;;
36355;SDS011;22384;54.302;18.596;2022-12-13T16:36:13;11.63;;;5.53;;
36355;SDS011;22384;54.302;18.596;2022-12-13T16:38:39;13.88;;;5.40;;
36355;SDS011;22384;54.302;18.596;2022-12-13T16:41:06;12.45;;;5.10;;
36355;SDS011;22384;54.302;18.596;2022-12-13T16:43:33;14.82;;;5.25;;
36355;SDS011;22384;54.302;18.596;2022-12-13T16:45:59;14.20;;;5.15;;
36355;SDS011;22384;54.302;18.596;2022-12-13T16:48:27;11.13;;;4.95;;
36355;SDS011;22384;54.302;18.596;2022-12-13T16:50:55;12.90;;;5.25;;
36355;SDS011;22384;54.302;18.596;2022-12-13T16:53:21;14.70;;;4.63;;
36355;SDS011;22384;54.302;18.596;2022-12-13T16:55:49;50.35;;;16.73;;
36355;SDS011;22384;54.302;18.596;2022-12-13T16:58:16;37.10;;;18.58;;
36355;SDS011;22384;54.302;18.596;2022-12-13T17:00:48;16.30;;;6.55;;
36355;SDS011;22384;54.302;18.596;2022-12-13T17:03:15;16.98;;;6.45;;
36355;SDS011;22384;54.302;18.596;2022-12-13T17:05:42;16.67;;;8.00;;